createdAt,value
2019-05-02T00:01:13.798Z,42.10
2019-05-02T00:03:43.000Z,43.35
2019-05-02T00:06:11.568Z,44.10
2019-05-02T00:08:40.567Z,46.47
2019-05-02T00:11:10.196Z,46.16
2019-05-02T00:13:39.690Z,45.80
2019-05-02T00:16:09.009Z,45.67
2019-05-02T00:18:40.417Z,47.03
2019-05-02T00:21:10.535Z,48.03
2019-05-02T00:23:39.423Z,44.45
2019-05-02T00:26:08.415Z,46.37
2019-05-02T00:28:36.999Z,46.23
2019-05-02T00:31:07.436Z,46.75
2019-05-02T00:33:36.539Z,47.20
2019-05-02T00:36:06.238Z,44.60
2019-05-02T00:38:38.427Z,44.70
2019-05-02T00:41:06.872Z,46.06
2019-05-02T00:43:36.431Z,44.42
2019-05-02T00:46:06.083Z,44.70
2019-05-02T00:48:46.032Z,43.28
2019-05-02T00:51:15.231Z,44.53
2019-05-02T00:53:44.390Z,42.60
2019-05-02T00:56:14.036Z,41.37
2019-05-02T00:58:42.736Z,40.98
2019-05-02T01:01:29.562Z,42.60
2019-05-02T01:04:00.664Z,40.38
2019-05-02T01:06:31.300Z,40.17
2019-05-02T01:09:00.185Z,38.87
2019-05-02T01:11:32.228Z,38.55
2019-05-02T01:13:59.908Z,39.08
2019-05-02T01:16:31.459Z,37.80
2019-05-02T01:19:12.177Z,39.42
2019-05-02T01:21:40.096Z,37.80
2019-05-02T01:24:08.784Z,37.38
2019-05-02T01:26:38.899Z,37.25
2019-05-02T01:29:24.776Z,37.40
2019-05-02T01:31:58.796Z,39.38
2019-05-02T01:34:41.300Z,37.88
2019-05-02T01:37:23.703Z,38.70
2019-05-02T01:39:52.291Z,39.08
2019-05-02T01:42:21.182Z,39.63
2019-05-02T01:44:50.073Z,39.93
2019-05-02T01:47:18.651Z,40.03
2019-05-02T01:49:47.545Z,40.67
2019-05-02T01:52:18.932Z,40.85
2019-05-02T01:54:47.579Z,42.33
2019-05-02T01:57:16.256Z,42.03
2019-05-02T01:59:44.839Z,41.65
2019-05-02T02:02:13.935Z,41.65
2019-05-02T02:04:43.149Z,41.65
2019-05-02T02:07:14.989Z,42.17
2019-05-02T02:09:44.110Z,41.18
2019-05-02T02:12:13.896Z,42.23
2019-05-02T02:14:43.503Z,40.52
2019-05-02T02:17:15.610Z,39.80
2019-05-02T02:19:47.532Z,42.38
2019-05-02T02:22:39.260Z,40.13
2019-05-02T02:25:27.079Z,39.18
2019-05-02T02:27:59.717Z,40.38
2019-05-02T02:30:28.779Z,40.33
2019-05-02T02:33:00.402Z,38.48
2019-05-02T02:35:28.803Z,38.17
2019-05-02T02:37:57.795Z,36.53
2019-05-02T02:40:32.836Z,35.20
2019-05-02T02:42:56.803Z,34.83
2019-05-02T02:45:30.787Z,36.65
2019-05-02T02:48:02.370Z,35.30
2019-05-02T02:50:36.911Z,34.63
2019-05-02T02:53:02.397Z,34.73
2019-05-02T02:55:33.923Z,32.73
2019-05-02T02:58:04.720Z,32.63
2019-05-02T03:00:33.143Z,32.93
2019-05-02T03:03:02.347Z,31.73
2019-05-02T03:05:32.575Z,31.73
2019-05-02T03:08:05.490Z,31.70
2019-05-02T03:10:31.972Z,31.02
2019-05-02T03:13:15.210Z,30.57
2019-05-02T03:15:43.267Z,30.33
2019-05-02T03:18:12.155Z,28.60
2019-05-02T03:20:42.161Z,29.73
2019-05-02T03:23:15.152Z,28.53
2019-05-02T03:25:50.276Z,28.10
2019-05-02T03:28:18.616Z,29.00
2019-05-02T03:30:43.470Z,28.52
2019-05-02T03:33:12.580Z,27.03
2019-05-02T03:35:48.127Z,29.63
2019-05-02T03:38:12.279Z,29.40
2019-05-02T03:40:41.898Z,30.15
2019-05-02T03:43:11.105Z,29.23
2019-05-02T03:45:42.867Z,27.25
2019-05-02T03:48:10.521Z,29.60
2019-05-02T03:50:40.105Z,28.42
2019-05-02T03:53:08.997Z,29.10
2019-05-02T03:55:37.585Z,28.45
2019-05-02T03:58:13.845Z,29.30
2019-05-02T04:00:37.712Z,29.63
2019-05-02T04:03:06.395Z,28.60
2019-05-02T04:05:40.455Z,29.05
2019-05-02T04:08:06.029Z,29.78
2019-05-02T04:10:45.656Z,29.87
2019-05-02T04:13:15.696Z,30.57
2019-05-02T04:15:45.280Z,31.30
2019-05-02T04:18:15.394Z,30.03
2019-05-02T04:20:49.638Z,31.27
2019-05-02T04:23:21.133Z,29.23
2019-05-02T04:25:48.944Z,32.03
2019-05-02T04:28:19.667Z,32.75
2019-05-02T04:30:51.331Z,33.33
2019-05-02T04:33:18.889Z,32.93
2019-05-02T04:35:47.763Z,32.77
2019-05-02T04:38:21.221Z,33.60
2019-05-02T04:40:49.568Z,33.83
2019-05-02T04:43:18.545Z,34.43
2019-05-02T04:45:56.168Z,32.83
2019-05-02T04:48:18.508Z,34.78
2019-05-02T04:50:48.378Z,34.53
2019-05-02T04:53:18.950Z,34.43
2019-05-02T04:55:52.040Z,34.25
2019-05-02T04:58:27.742Z,34.90
2019-05-02T05:00:58.149Z,36.57
2019-05-02T05:03:21.339Z,36.60
2019-05-02T05:05:50.614Z,36.00
2019-05-02T05:08:26.321Z,34.87
2019-05-02T05:10:49.600Z,35.87
2019-05-02T05:13:22.804Z,36.42
2019-05-02T05:15:51.905Z,36.85
2019-05-02T05:18:20.077Z,36.37
2019-05-02T05:20:53.248Z,35.50
2019-05-02T05:23:21.673Z,36.77
2019-05-02T05:25:55.697Z,38.78
2019-05-02T05:28:22.190Z,37.47
2019-05-02T05:30:52.217Z,37.85
2019-05-02T05:33:24.192Z,37.53
2019-05-02T05:35:53.174Z,37.67
2019-05-02T05:38:28.601Z,37.33
2019-05-02T05:40:54.519Z,38.30
2019-05-02T05:43:23.096Z,36.60
2019-05-02T05:45:56.397Z,37.10
2019-05-02T05:48:22.107Z,38.17
2019-05-02T05:50:50.689Z,39.92
2019-05-02T05:53:21.423Z,38.73
2019-05-02T05:55:53.587Z,38.98
2019-05-02T05:58:20.120Z,37.20
2019-05-02T06:00:53.695Z,38.77
2019-05-02T06:03:19.331Z,36.03
2019-05-02T06:05:48.237Z,35.60
2019-05-02T06:08:18.488Z,36.55
2019-05-02T06:10:47.755Z,36.57
2019-05-02T06:13:16.532Z,34.03
2019-05-02T06:15:46.004Z,37.75
2019-05-02T06:18:15.332Z,36.15
2019-05-02T06:20:44.219Z,26.97
2019-05-02T06:23:13.229Z,33.02
2019-05-02T06:25:43.025Z,28.77
2019-05-02T06:28:12.319Z,27.48
2019-05-02T06:30:40.918Z,25.92
2019-05-02T06:33:09.480Z,25.47
2019-05-02T06:35:38.263Z,26.60
2019-05-02T06:38:06.787Z,24.15
2019-05-02T06:40:39.295Z,24.40
2019-05-02T06:43:09.662Z,24.26
2019-05-02T06:45:37.568Z,23.83
2019-05-02T06:48:06.812Z,21.80
2019-05-02T06:50:38.815Z,21.47
2019-05-02T06:53:09.604Z,18.37
2019-05-02T06:55:38.766Z,16.60
2019-05-02T06:58:08.143Z,15.17
2019-05-02T07:00:55.250Z,12.82
2019-05-02T07:03:10.106Z,15.23
2019-05-02T07:05:37.943Z,13.65
2019-05-02T07:08:11.682Z,13.05
2019-05-02T07:10:44.570Z,13.05
2019-05-02T07:13:10.750Z,12.90
2019-05-02T07:15:40.569Z,12.15
2019-05-02T07:18:14.264Z,11.78
2019-05-02T07:20:43.281Z,10.77
2019-05-02T07:23:16.206Z,11.60
2019-05-02T07:25:43.960Z,11.80
2019-05-02T07:28:13.719Z,12.57
2019-05-02T07:30:42.620Z,12.17
2019-05-02T07:33:11.191Z,11.10
2019-05-02T07:35:39.772Z,11.15
2019-05-02T07:38:08.456Z,11.65
2019-05-02T07:40:37.263Z,11.65
2019-05-02T07:43:06.037Z,11.50
2019-05-02T07:45:35.130Z,11.00
2019-05-02T07:48:04.135Z,11.30
2019-05-02T07:50:33.007Z,10.10
2019-05-02T07:53:04.386Z,8.88
2019-05-02T07:55:35.432Z,9.00
2019-05-02T07:58:06.899Z,8.83
2019-05-02T08:00:37.104Z,7.45
2019-05-02T08:03:05.074Z,6.90
2019-05-02T08:05:33.427Z,6.47
2019-05-02T08:08:02.597Z,6.10
2019-05-02T08:10:32.211Z,6.37
2019-05-02T08:13:01.203Z,5.22
2019-05-02T08:15:30.498Z,5.67
2019-05-02T08:17:59.694Z,4.67
2019-05-02T08:20:28.808Z,5.42
2019-05-02T08:22:57.676Z,5.22
2019-05-02T08:25:27.594Z,5.03
2019-05-02T08:27:58.326Z,5.83
2019-05-02T08:30:30.201Z,4.85
2019-05-02T08:32:59.076Z,4.57
2019-05-02T08:35:28.422Z,4.47
2019-05-02T08:37:58.711Z,4.47
2019-05-02T08:40:27.807Z,4.37
2019-05-02T08:42:56.887Z,4.20
2019-05-02T08:45:25.671Z,4.37
2019-05-02T08:47:54.455Z,3.80
2019-05-02T08:50:27.140Z,4.57
2019-05-02T08:52:53.659Z,4.05
2019-05-02T08:55:23.272Z,4.87
2019-05-02T08:57:51.856Z,4.10
2019-05-02T09:00:32.049Z,4.23
2019-05-02T09:03:02.754Z,4.50
2019-05-02T09:05:36.922Z,4.40
2019-05-02T09:08:03.184Z,3.70
2019-05-02T09:10:31.759Z,4.42
2019-05-02T09:13:02.626Z,3.70
2019-05-02T09:15:35.222Z,3.87
2019-05-02T09:18:03.652Z,3.70
2019-05-02T09:20:32.230Z,4.20
2019-05-02T09:23:01.751Z,4.33
2019-05-02T09:25:32.490Z,3.72
2019-05-02T09:28:01.948Z,2.58
2019-05-02T09:30:32.803Z,2.90
2019-05-02T09:33:02.851Z,2.75
2019-05-02T09:35:32.902Z,2.75
2019-05-02T09:38:02.954Z,2.83
2019-05-02T09:40:32.968Z,2.72
2019-05-02T09:43:02.727Z,2.58
2019-05-02T09:45:37.190Z,2.70
2019-05-02T09:48:07.048Z,2.70
2019-05-02T09:50:34.445Z,2.67
2019-05-02T09:53:03.992Z,2.42
2019-05-02T09:55:32.559Z,2.50
2019-05-02T09:58:02.720Z,2.27
2019-05-02T10:00:36.130Z,2.15
2019-05-02T10:03:04.460Z,2.10
2019-05-02T10:05:33.332Z,2.00
2019-05-02T10:08:03.206Z,1.85
2019-05-02T10:10:32.548Z,1.32
2019-05-02T10:13:02.792Z,2.30
2019-05-02T10:15:32.702Z,1.70
2019-05-02T10:18:10.629Z,2.08
2019-05-02T10:20:36.167Z,1.82
2019-05-02T10:23:02.821Z,1.93
2019-05-02T10:25:38.746Z,1.60
2019-05-02T10:28:03.678Z,2.22
2019-05-02T10:30:36.073Z,1.87
2019-05-02T10:33:06.692Z,2.10
2019-05-02T10:35:43.530Z,2.15
2019-05-02T10:38:15.173Z,2.55
2019-05-02T10:40:43.275Z,1.93
2019-05-02T10:43:12.175Z,1.57
2019-05-02T10:45:42.630Z,1.62
2019-05-02T10:48:24.784Z,2.02
2019-05-02T10:50:43.564Z,1.40
2019-05-02T10:53:15.628Z,1.90
2019-05-02T10:55:43.060Z,1.12
2019-05-02T10:58:12.484Z,1.20
2019-05-02T11:00:45.114Z,1.75
2019-05-02T11:03:16.717Z,1.37
2019-05-02T11:05:47.223Z,1.27
2019-05-02T11:08:16.016Z,1.40
2019-05-02T11:10:45.103Z,1.10
2019-05-02T11:13:24.743Z,1.10
2019-05-02T11:16:12.401Z,1.00
2019-05-02T11:18:59.097Z,1.37
2019-05-02T11:21:27.659Z,1.30
2019-05-02T11:23:56.579Z,1.40
2019-05-02T11:26:26.992Z,1.40
2019-05-02T11:28:55.763Z,1.40
2019-05-02T11:31:24.655Z,0.90
2019-05-02T11:33:53.365Z,1.05
2019-05-02T11:36:22.497Z,1.27
2019-05-02T11:39:00.619Z,1.42
2019-05-02T11:41:22.405Z,1.50
2019-05-02T11:43:54.045Z,1.37
2019-05-02T11:46:22.904Z,0.90
2019-05-02T11:48:56.393Z,1.22
2019-05-02T11:51:22.653Z,1.00
2019-05-02T11:53:52.633Z,1.37
2019-05-02T11:56:22.402Z,0.95
2019-05-02T11:58:52.873Z,1.20
2019-05-02T12:01:34.953Z,1.10
2019-05-02T12:03:53.015Z,1.00
2019-05-02T12:06:22.611Z,1.13
2019-05-02T12:08:52.543Z,1.30
2019-05-02T12:11:22.901Z,1.43
2019-05-02T12:13:56.928Z,1.00
2019-05-02T12:16:24.011Z,1.50
2019-05-02T12:18:53.741Z,1.17
2019-05-02T12:21:23.212Z,1.03
2019-05-02T12:23:52.981Z,1.42
2019-05-02T12:26:22.223Z,1.10
2019-05-02T12:28:52.699Z,1.10
2019-05-02T12:31:23.277Z,1.10
2019-05-02T12:33:51.863Z,1.17
2019-05-02T12:36:22.658Z,1.15
2019-05-02T12:38:52.740Z,1.07
2019-05-02T12:41:24.940Z,1.30
2019-05-02T12:43:52.600Z,1.37
2019-05-02T12:46:22.164Z,1.30
2019-05-02T12:48:52.032Z,1.40
2019-05-02T12:51:22.580Z,1.40
2019-05-02T12:53:52.806Z,1.77
2019-05-02T12:56:22.937Z,2.47
2019-05-02T12:58:53.007Z,2.17
2019-05-02T13:01:22.057Z,2.10
2019-05-02T13:03:55.448Z,1.80
2019-05-02T13:06:24.320Z,1.50
2019-05-02T13:08:53.104Z,1.83
2019-05-02T13:11:36.858Z,2.20
2019-05-02T13:14:04.306Z,1.77
2019-05-02T13:16:33.651Z,1.70
2019-05-02T13:19:06.197Z,1.62
2019-05-02T13:21:42.238Z,1.67
2019-05-02T13:24:17.309Z,1.57
2019-05-02T13:26:46.157Z,1.80
2019-05-02T13:29:15.175Z,1.63
2019-05-02T13:31:45.573Z,1.40
2019-05-02T13:34:22.186Z,1.67
2019-05-02T13:36:52.016Z,1.22
2019-05-02T13:39:32.618Z,1.40
2019-05-02T13:42:01.765Z,1.77
2019-05-02T13:44:41.715Z,1.40
2019-05-02T13:47:12.282Z,1.27
2019-05-02T13:49:53.304Z,1.30
2019-05-02T13:52:11.846Z,1.43
2019-05-02T13:54:42.641Z,1.20
2019-05-02T13:57:12.122Z,1.60
2019-05-02T13:59:41.670Z,1.23
2019-05-02T14:02:12.325Z,1.45
2019-05-02T14:04:41.526Z,1.62
2019-05-02T14:07:13.245Z,1.60
2019-05-02T14:09:44.065Z,1.40
2019-05-02T14:12:23.404Z,1.52
2019-05-02T14:14:52.188Z,1.37
2019-05-02T14:17:22.832Z,1.83
2019-05-02T14:19:54.144Z,1.65
2019-05-02T14:22:22.617Z,1.98
2019-05-02T14:24:52.015Z,1.60
2019-05-02T14:27:22.328Z,1.80
2019-05-02T14:29:52.517Z,1.60
2019-05-02T14:32:26.342Z,1.53
2019-05-02T14:34:57.740Z,1.32
2019-05-02T14:37:26.837Z,1.50
2019-05-02T14:39:57.264Z,1.60
2019-05-02T14:42:26.327Z,1.60
2019-05-02T14:45:11.873Z,1.53
2019-05-02T14:47:25.767Z,1.77
2019-05-02T14:49:56.721Z,1.60
2019-05-02T14:52:24.880Z,1.30
2019-05-02T14:54:57.106Z,1.40
2019-05-02T14:57:27.238Z,1.53
2019-05-02T14:59:59.544Z,1.62
2019-05-02T15:02:47.215Z,1.73
2019-05-02T15:05:14.207Z,1.82
2019-05-02T15:07:43.409Z,1.98
2019-05-02T15:10:13.647Z,1.77
2019-05-02T15:12:42.105Z,2.45
2019-05-02T15:15:12.654Z,1.55
2019-05-02T15:17:42.096Z,1.75
2019-05-02T15:20:14.329Z,1.83
2019-05-02T15:22:45.074Z,2.00
2019-05-02T15:25:17.894Z,1.70
2019-05-02T15:27:45.252Z,1.50
2019-05-02T15:30:15.980Z,1.20
2019-05-02T15:32:55.871Z,1.30
2019-05-02T15:35:27.038Z,1.20
2019-05-02T15:37:56.678Z,1.02
2019-05-02T15:40:43.099Z,1.15
2019-05-02T15:43:02.799Z,1.10
2019-05-02T15:45:31.951Z,1.20
2019-05-02T15:48:02.622Z,1.60
2019-05-02T15:50:33.229Z,1.70
2019-05-02T15:53:22.316Z,1.02
2019-05-02T15:55:52.690Z,1.12
2019-05-02T15:58:26.117Z,1.20
2019-05-02T16:00:56.625Z,1.17
2019-05-02T16:03:28.603Z,0.95
2019-05-02T16:05:59.231Z,1.00
2019-05-02T16:08:29.516Z,1.80
2019-05-02T16:10:59.262Z,2.40
2019-05-02T16:13:28.050Z,1.10
2019-05-02T16:15:57.155Z,1.00
2019-05-02T16:18:27.057Z,2.17
2019-05-02T16:21:06.347Z,1.40
2019-05-02T16:23:35.473Z,1.40
2019-05-02T16:26:05.323Z,1.47
2019-05-02T16:28:36.733Z,1.30
2019-05-02T16:31:04.221Z,1.80
2019-05-02T16:33:32.784Z,1.85
2019-05-02T16:36:02.672Z,1.50
2019-05-02T16:38:34.965Z,2.00
2019-05-02T16:41:09.737Z,3.33
2019-05-02T16:43:32.944Z,4.67
2019-05-02T16:46:02.179Z,4.78
2019-05-02T16:48:37.448Z,3.35
2019-05-02T16:51:02.236Z,1.77
2019-05-02T16:53:33.347Z,1.30
2019-05-02T16:56:05.525Z,1.77
2019-05-02T16:58:33.708Z,1.40
2019-05-02T17:01:02.345Z,1.50
2019-05-02T17:03:31.656Z,1.60
2019-05-02T17:06:01.712Z,1.83
2019-05-02T17:08:32.810Z,1.50
2019-05-02T17:11:04.152Z,1.47
2019-05-02T17:13:35.775Z,1.67
2019-05-02T17:16:13.111Z,1.60
2019-05-02T17:18:36.539Z,2.20
2019-05-02T17:21:06.756Z,1.44
2019-05-02T17:23:37.388Z,1.62
2019-05-02T17:26:06.488Z,1.60
2019-05-02T17:28:43.254Z,2.10
2019-05-02T17:31:10.734Z,2.03
2019-05-02T17:33:38.993Z,1.87
2019-05-02T17:36:11.565Z,2.08
2019-05-02T17:38:41.860Z,2.20
2019-05-02T17:41:11.976Z,2.00
2019-05-02T17:43:42.230Z,2.10
2019-05-02T17:46:12.562Z,2.30
2019-05-02T17:48:42.931Z,2.50
2019-05-02T17:51:28.308Z,2.27
2019-05-02T17:53:56.368Z,2.72
2019-05-02T17:56:25.310Z,3.00
2019-05-02T17:58:58.134Z,3.80
2019-05-02T18:01:33.320Z,3.43
2019-05-02T18:03:59.020Z,3.92
2019-05-02T18:06:32.875Z,4.10
2019-05-02T18:08:58.576Z,3.80
2019-05-02T18:11:29.683Z,3.55
2019-05-02T18:13:59.639Z,3.67
2019-05-02T18:16:28.508Z,3.50
2019-05-02T18:18:57.401Z,3.10
2019-05-02T18:21:28.701Z,3.17
2019-05-02T18:23:57.197Z,2.92
2019-05-02T18:26:27.057Z,2.92
2019-05-02T18:28:57.170Z,3.70
2019-05-02T18:31:26.655Z,3.80
2019-05-02T18:33:55.362Z,3.35
2019-05-02T18:36:26.920Z,3.63
2019-05-02T18:39:06.064Z,3.67
2019-05-02T18:41:37.365Z,3.40
2019-05-02T18:44:06.671Z,2.85
2019-05-02T18:46:36.813Z,3.45
2019-05-02T18:49:07.217Z,3.40
2019-05-02T18:51:59.168Z,3.03
2019-05-02T18:54:28.667Z,2.80
2019-05-02T18:56:59.808Z,2.85
2019-05-02T18:59:32.035Z,2.85
2019-05-02T19:02:02.193Z,2.83
2019-05-02T19:04:38.068Z,2.98
2019-05-02T19:07:07.628Z,2.80
2019-05-02T19:09:34.184Z,3.10
2019-05-02T19:12:05.779Z,3.08
2019-05-02T19:14:33.307Z,3.17
2019-05-02T19:17:03.698Z,2.90
2019-05-02T19:19:36.898Z,3.20
2019-05-02T19:22:07.483Z,4.50
2019-05-02T19:24:37.259Z,3.60
2019-05-02T19:27:07.386Z,3.96
2019-05-02T19:29:35.931Z,3.58
2019-05-02T19:32:07.087Z,4.00
2019-05-02T19:34:37.306Z,3.70
2019-05-02T19:37:06.096Z,3.70
2019-05-02T19:39:39.094Z,3.50
2019-05-02T19:42:06.637Z,3.47
2019-05-02T19:44:35.737Z,3.80
2019-05-02T19:47:08.293Z,3.40
2019-05-02T19:49:36.701Z,4.20
2019-05-02T19:52:06.191Z,3.95
2019-05-02T19:54:39.421Z,3.97
2019-05-02T19:57:06.632Z,3.74
2019-05-02T19:59:40.478Z,3.95
2019-05-02T20:02:11.789Z,4.14
2019-05-02T20:04:42.675Z,4.53
2019-05-02T20:07:22.795Z,4.40
2019-05-02T20:10:08.394Z,4.27
2019-05-02T20:12:48.409Z,5.20
2019-05-02T20:15:26.812Z,4.80
2019-05-02T20:17:53.450Z,5.97
2019-05-02T20:20:44.955Z,5.50
2019-05-02T20:23:16.252Z,6.28
2019-05-02T20:25:43.957Z,5.25
2019-05-02T20:28:12.744Z,5.83
2019-05-02T20:30:42.112Z,4.87
2019-05-02T20:33:12.848Z,5.42
2019-05-02T20:35:42.192Z,5.22
2019-05-02T20:38:11.769Z,4.97
2019-05-02T20:40:42.641Z,3.63
2019-05-02T20:43:12.732Z,3.20
2019-05-02T20:45:41.752Z,3.17
2019-05-02T20:48:11.891Z,2.90
2019-05-02T20:50:42.298Z,2.77
2019-05-02T20:53:12.835Z,2.92
2019-05-02T20:55:41.719Z,2.70
2019-05-02T20:58:19.023Z,3.10
2019-05-02T21:03:15.831Z,3.23
2019-05-02T21:05:52.200Z,3.55
2019-05-02T21:08:38.903Z,3.00
2019-05-02T21:11:08.103Z,2.52
2019-05-02T21:13:37.110Z,2.90
2019-05-02T21:16:06.392Z,3.10
2019-05-02T21:18:35.283Z,3.53
2019-05-02T21:21:05.395Z,3.50
2019-05-02T21:23:44.198Z,4.92
2019-05-02T21:26:06.249Z,4.03
2019-05-02T21:28:35.548Z,3.35
2019-05-02T21:31:06.196Z,3.10
2019-05-02T21:33:36.605Z,2.80
2019-05-02T21:36:07.127Z,2.64
2019-05-02T21:38:35.936Z,2.72
2019-05-02T21:41:08.183Z,2.50
2019-05-02T21:43:36.766Z,2.72
2019-05-02T21:46:06.891Z,2.42
2019-05-02T21:48:36.083Z,2.72
2019-05-02T21:51:11.990Z,2.22
2019-05-02T21:53:56.014Z,2.67
2019-05-02T21:56:34.607Z,2.50
2019-05-02T21:59:12.110Z,2.75
2019-05-02T22:01:44.806Z,2.50
2019-05-02T22:04:13.657Z,2.83
2019-05-02T22:06:43.703Z,3.23
2019-05-02T22:09:12.592Z,3.42
2019-05-02T22:11:42.960Z,3.22
2019-05-02T22:14:13.347Z,2.70
2019-05-02T22:16:42.835Z,2.93
2019-05-02T22:19:11.702Z,3.00
2019-05-02T22:21:40.284Z,3.12
2019-05-02T22:24:13.728Z,3.16
2019-05-02T22:26:39.293Z,3.60
2019-05-02T22:29:08.179Z,3.22
2019-05-02T22:31:37.070Z,2.80
2019-05-02T22:34:05.863Z,3.00
2019-05-02T22:36:34.747Z,3.50
2019-05-02T22:39:12.672Z,2.98
2019-05-02T22:41:41.950Z,3.60
2019-05-02T22:44:12.477Z,3.00
2019-05-02T22:46:43.479Z,2.47
2019-05-02T22:49:14.650Z,3.50
2019-05-02T22:51:43.135Z,3.70
2019-05-02T22:54:25.512Z,3.37
2019-05-02T22:56:43.284Z,2.98
2019-05-02T22:59:11.848Z,3.80
2019-05-02T23:01:42.230Z,3.20
2019-05-02T23:04:12.730Z,3.60
2019-05-02T23:06:43.927Z,3.23
2019-05-02T23:09:12.662Z,3.67
2019-05-02T23:11:42.602Z,3.33
2019-05-02T23:14:11.461Z,3.57
2019-05-02T23:16:42.749Z,3.00
2019-05-02T23:19:12.255Z,3.50
2019-05-02T23:21:42.241Z,3.33
2019-05-02T23:24:14.545Z,3.53
2019-05-02T23:27:01.075Z,3.20
2019-05-02T23:29:31.737Z,3.80
2019-05-02T23:31:59.995Z,3.27
2019-05-02T23:34:28.861Z,3.17
2019-05-02T23:36:57.959Z,3.50
2019-05-02T23:39:26.746Z,3.47
2019-05-02T23:41:55.939Z,3.52
2019-05-02T23:44:24.953Z,3.27
2019-05-02T23:46:53.819Z,3.73
2019-05-02T23:49:22.711Z,3.35
2019-05-02T23:51:51.723Z,3.40
2019-05-02T23:54:21.912Z,4.27
2019-05-02T23:56:50.499Z,3.70
2019-05-02T23:59:19.288Z,3.33
